Time;durP1;ratioP1;P1;durP2;ratioP2;P2;SDS_P1;SDS_P2;PMS_P1;PMS_P2;Temp;Humidity;BMP_temperature;BMP_pressure;BME280_temperature;BME280_humidity;BME280_pressure;Samples;Min_cycle;Max_cycle;Signal;HPM_P1;HPM_P2
2024/03/07 00:00:17;;;;;;;9.00;3.70;;;;;;;3.10;49.94;101397.11;105578;1258;63556;-57
2024/03/07 00:02:47;;;;;;;8.10;2.80;;;;;;;3.08;49.64;101398.02;108563;1259;63739;-58
2024/03/07 00:05:17;;;;;;;8.60;2.90;;;;;;;3.07;49.49;101390.79;106196;1255;60427;-57
2024/03/07 00:07:44;;;;;;;10.00;2.80;;;;;;;3.06;49.46;101393.07;108555;1254;59069;-58
2024/03/07 00:10:12;;;;;;;8.40;4.10;;;;;;;3.07;49.43;101393.89;107979;1260;66993;-56
2024/03/07 00:12:42;;;;;;;9.70;2.50;;;;;;;3.06;49.07;101390.80;106140;1260;60470;-60
2024/03/07 00:15:11;;;;;;;9.00;4.00;;;;;;;3.05;48.99;101389.12;104256;1261;62475;-57
2024/03/07 00:17:39;;;;;;;5.60;2.20;;;;;;;3.04;48.85;101388.11;108505;1257;59417;-58
2024/03/07 00:20:13;;;;;;;8.00;2.90;;;;;;;3.01;48.71;101384.20;108541;1256;58719;-56
2024/03/07 00:22:42;;;;;;;10.00;4.00;;;;;;;2.98;48.54;101385.51;108576;1254;63729;-58
2024/03/07 00:25:10;;;;;;;6.60;2.70;;;;;;;2.95;48.61;101386.12;106225;1259;62177;-59
2024/03/07 00:27:38;;;;;;;6.00;2.00;;;;;;;2.94;48.68;101389.81;104171;1259;62958;-60
2024/03/07 00:30:09;;;;;;;9.80;2.90;;;;;;;2.93;48.59;101391.40;104312;1260;60549;-59
2024/03/07 00:32:39;;;;;;;6.70;2.10;;;;;;;2.92;48.52;101387.80;108531;1254;60604;-58
2024/03/07 00:35:10;;;;;;;7.70;2.60;;;;;;;2.91;48.49;101383.85;108591;1255;65989;-59
2024/03/07 00:37:37;;;;;;;9.00;4.70;;;;;;;2.91;48.42;101379.17;108527;1255;62371;-58
2024/03/07 00:40:06;;;;;;;7.70;2.80;;;;;;;2.92;48.54;101380.85;106418;1260;63719;-60
2024/03/07 00:42:33;;;;;;;8.40;2.90;;;;;;;2.94;48.51;101380.80;108494;1260;58390;-60
2024/03/07 00:45:03;;;;;;;8.10;2.60;;;;;;;2.95;48.25;101374.89;108587;1260;58704;-60
2024/03/07 00:47:32;;;;;;;6.00;2.60;;;;;;;2.94;48.19;101374.71;107569;1260;64960;-60
2024/03/07 00:50:00;;;;;;;7.50;3.60;;;;;;;2.96;48.07;101379.19;108559;1260;61773;-60
2024/03/07 00:52:27;;;;;;;7.00;2.50;;;;;;;2.95;48.11;101376.60;105015;1260;63811;-58
2024/03/07 00:54:55;;;;;;;6.20;2.20;;;;;;;2.94;48.35;101377.67;104335;1256;60584;-59
2024/03/07 00:57:23;;;;;;;7.70;2.50;;;;;;;2.93;48.30;101374.45;104626;1261;60622;-58
2024/03/07 00:59:51;;;;;;;6.60;2.90;;;;;;;2.90;47.76;101375.03;104246;1262;64964;-60
2024/03/07 01:02:19;;;;;;;7.60;3.00;;;;;;;2.86;47.74;101371.52;104990;1262;63965;-57
2024/03/07 01:04:47;;;;;;;8.40;2.90;;;;;;;2.83;47.62;101373.70;104155;1257;62493;-58
2024/03/07 01:07:15;;;;;;;7.20;2.50;;;;;;;2.82;47.74;101373.92;108593;1257;60217;-58
2024/03/07 01:09:42;;;;;;;7.60;3.00;;;;;;;2.79;47.68;101374.68;107093;1254;61854;-57
2024/03/07 01:12:11;;;;;;;8.50;3.00;;;;;;;2.77;47.73;101373.52;104196;1263;63664;-55
2024/03/07 01:14:39;;;;;;;5.60;2.10;;;;;;;2.76;47.73;101375.13;108577;1254;62534;-57
2024/03/07 01:17:07;;;;;;;5.70;2.10;;;;;;;2.74;47.42;101371.89;108575;1254;63819;-56
2024/03/07 01:19:37;;;;;;;7.40;2.90;;;;;;;2.73;47.59;101374.35;107271;1254;60465;-55
2024/03/07 01:22:05;;;;;;;6.10;2.60;;;;;;;2.74;47.82;101373.80;104219;1262;60617;-55
2024/03/07 01:24:33;;;;;;;7.10;2.20;;;;;;;2.74;47.83;101377.96;107422;1261;64870;-55
2024/03/07 01:27:01;;;;;;;7.80;2.90;;;;;;;2.74;47.88;101375.38;108552;1257;61355;-57
2024/03/07 01:29:29;;;;;;;5.80;2.60;;;;;;;2.73;47.84;101376.60;105652;1260;63744;-56
2024/03/07 01:31:56;;;;;;;10.50;2.90;;;;;;;2.72;47.69;101375.95;104229;1258;60444;-55
2024/03/07 01:34:24;;;;;;;7.60;2.20;;;;;;;2.69;47.53;101373.62;104181;1259;60541;-55
2024/03/07 01:36:52;;;;;;;6.90;2.70;;;;;;;2.66;47.49;101371.64;104277;1257;65903;-56
2024/03/07 01:39:19;;;;;;;6.10;2.70;;;;;;;2.64;47.54;101370.15;104288;1261;61603;-56
2024/03/07 01:41:47;;;;;;;7.60;2.70;;;;;;;2.63;47.80;101373.46;104162;1255;66271;-56
2024/03/07 01:44:15;;;;;;;7.60;2.90;;;;;;;2.62;47.85;101376.59;108594;1256;59224;-57
2024/03/07 01:46:43;;;;;;;7.90;2.80;;;;;;;2.62;47.56;101373.30;108545;1260;59800;-56
2024/03/07 01:49:11;;;;;;;6.20;1.70;;;;;;;2.63;47.62;101372.41;108134;1254;64830;-55
2024/03/07 01:51:38;;;;;;;8.00;2.10;;;;;;;2.64;47.66;101377.92;104241;1257;62412;-56
2024/03/07 01:54:07;;;;;;;6.30;2.60;;;;;;;2.66;47.53;101378.72;104208;1261;63717;-57
2024/03/07 01:56:36;;;;;;;7.10;2.20;;;;;;;2.66;47.13;101375.10;107543;1260;60451;-55
2024/03/07 01:59:05;;;;;;;5.70;2.30;;;;;;;2.64;47.11;101373.96;108276;1254;58546;-58
2024/03/07 02:01:33;;;;;;;7.20;2.70;;;;;;;2.62;47.28;101374.69;104064;1254;65039;-57
2024/03/07 02:04:00;;;;;;;7.40;2.40;;;;;;;2.63;47.41;101377.63;106541;1257;61476;-57
2024/03/07 02:06:28;;;;;;;6.40;2.70;;;;;;;2.64;47.45;101378.29;104339;1256;62812;-56
2024/03/07 02:08:56;;;;;;;5.40;2.30;;;;;;;2.64;47.07;101379.33;104177;1258;61088;-56
2024/03/07 02:11:24;;;;;;;5.30;2.40;;;;;;;2.65;47.39;101378.94;108721;1254;59036;-56
2024/03/07 02:13:52;;;;;;;5.90;2.20;;;;;;;2.66;47.20;101379.94;108543;1257;64948;-57
2024/03/07 02:16:20;;;;;;;6.20;2.90;;;;;;;2.68;47.34;101377.64;104976;1257;61388;-55
2024/03/07 02:18:47;;;;;;;8.10;3.00;;;;;;;2.68;47.36;101378.33;104189;1256;64064;-58
2024/03/07 02:21:16;;;;;;;4.80;1.90;;;;;;;2.70;47.40;101380.54;104128;1260;60528;-56
2024/03/07 02:23:43;;;;;;;8.00;2.70;;;;;;;2.73;47.21;101382.52;108554;1254;58480;-57
2024/03/07 02:26:11;;;;;;;6.10;1.70;;;;;;;2.76;47.20;101384.14;108543;1257;64934;-55
2024/03/07 02:28:39;;;;;;;8.50;2.90;;;;;;;2.78;47.33;101382.67;104553;1260;60270;-54
2024/03/07 02:31:06;;;;;;;6.60;2.30;;;;;;;2.79;47.15;101382.14;104621;1257;62494;-55
2024/03/07 02:33:34;;;;;;;5.60;2.10;;;;;;;2.80;46.97;101384.70;104209;1256;60621;-54
2024/03/07 02:36:03;;;;;;;7.10;2.70;;;;;;;2.80;46.95;101385.39;104256;1255;60549;-55
2024/03/07 02:38:31;;;;;;;8.30;2.30;;;;;;;2.82;46.90;101384.32;105765;1260;63967;-55
2024/03/07 02:40:59;;;;;;;8.60;3.70;;;;;;;2.83;46.92;101383.61;104207;1254;69948;-57
2024/03/07 02:43:27;;;;;;;8.00;2.60;;;;;;;2.84;47.15;101379.24;104152;1257;63919;-57
2024/03/07 02:45:55;;;;;;;7.50;2.30;;;;;;;2.85;47.15;101378.48;108537;1254;60150;-57
2024/03/07 02:48:22;;;;;;;8.90;2.40;;;;;;;2.88;47.34;101376.65;108566;1255;58673;-57
2024/03/07 02:50:51;;;;;;;6.70;2.40;;;;;;;2.92;47.35;101374.45;108551;1254;63714;-57
2024/03/07 02:53:18;;;;;;;6.90;2.60;;;;;;;2.92;47.26;101373.56;105384;1254;64617;-56
2024/03/07 02:55:46;;;;;;;9.10;2.10;;;;;;;2.92;47.22;101371.34;108405;1255;62774;-56
2024/03/07 02:58:14;;;;;;;7.70;3.20;;;;;;;2.92;47.11;101369.27;104455;1259;60553;-56
2024/03/07 03:00:42;;;;;;;6.60;2.20;;;;;;;2.90;47.09;101373.14;104210;1254;60332;-56
2024/03/07 03:03:09;;;;;;;7.80;3.20;;;;;;;2.87;47.26;101370.29;104259;1258;63662;-55
2024/03/07 03:05:39;;;;;;;6.90;2.70;;;;;;;2.86;47.47;101370.64;104211;1256;63178;-55
2024/03/07 03:08:06;;;;;;;6.70;3.00;;;;;;;2.86;47.45;101371.34;108560;1254;63811;-57
2024/03/07 03:10:34;;;;;;;7.80;2.70;;;;;;;2.86;47.40;101367.20;108603;1256;58564;-58
2024/03/07 03:13:02;;;;;;;8.10;3.00;;;;;;;2.83;47.38;101368.52;108544;1254;60176;-57
2024/03/07 03:15:30;;;;;;;7.80;2.40;;;;;;;2.81;47.64;101369.60;106561;1258;67526;-57
2024/03/07 03:18:02;;;;;;;7.20;3.30;;;;;;;2.82;47.76;101368.71;104166;1255;61703;-56
2024/03/07 03:20:34;;;;;;;9.60;2.70;;;;;;;2.84;47.95;101367.43;104809;1260;62476;-59
2024/03/07 03:23:03;;;;;;;6.90;3.00;;;;;;;2.85;47.93;101369.63;104235;1258;60898;-57
2024/03/07 03:25:48;;;;;;;9.90;3.50;;;;;;;2.86;47.79;101368.23;108513;1254;59529;-57
2024/03/07 03:28:18;;;;;;;13.80;2.90;;;;;;;2.85;47.88;101373.10;108548;1257;64977;-57
2024/03/07 03:30:47;;;;;;;7.10;2.30;;;;;;;2.86;48.16;101375.85;105167;1254;62598;-55
2024/03/07 03:33:15;;;;;;;10.70;3.70;;;;;;;2.89;48.23;101378.16;108565;1258;63709;-55
2024/03/07 03:35:43;;;;;;;7.10;3.00;;;;;;;2.92;48.09;101379.65;108589;1256;59877;-56
2024/03/07 03:38:11;;;;;;;9.10;3.50;;;;;;;2.92;48.08;101378.60;108588;1254;59289;-58
2024/03/07 03:40:38;;;;;;;6.90;2.60;;;;;;;2.90;47.91;101385.27;108530;1254;63667;-59
2024/03/07 03:43:06;;;;;;;7.20;2.40;;;;;;;2.87;47.91;101386.56;108550;1258;60109;-58
2024/03/07 03:45:33;;;;;;;8.00;2.80;;;;;;;2.87;48.19;101385.89;108555;1257;62489;-58
2024/03/07 03:48:02;;;;;;;7.10;2.60;;;;;;;2.87;48.15;101386.55;108517;1254;59868;-58
2024/03/07 03:50:31;;;;;;;8.00;3.10;;;;;;;2.89;48.16;101391.72;104960;1257;60319;-58
2024/03/07 03:53:01;;;;;;;6.50;2.40;;;;;;;2.87;48.26;101393.48;106647;1257;68156;-62
2024/03/07 03:55:29;;;;;;;8.30;3.30;;;;;;;2.87;48.38;101390.38;104293;1254;61537;-56
2024/03/07 03:57:57;;;;;;;10.70;3.40;;;;;;;2.85;48.11;101390.44;104591;1257;64825;-56
2024/03/07 04:00:24;;;;;;;8.90;3.50;;;;;;;2.81;48.09;101391.08;104148;1257;60561;-56
2024/03/07 04:02:52;;;;;;;8.60;3.00;;;;;;;2.78;48.13;101390.50;104238;1256;60681;-56
2024/03/07 04:05:21;;;;;;;9.10;3.70;;;;;;;2.75;48.18;101396.11;108589;1257;67785;-57
2024/03/07 04:07:49;;;;;;;7.90;3.50;;;;;;;2.74;48.31;101394.41;108513;1257;61014;-57
2024/03/07 04:10:17;;;;;;;8.40;3.00;;;;;;;2.75;48.32;101393.17;108647;1256;64247;-58
2024/03/07 04:12:45;;;;;;;8.00;2.90;;;;;;;2.74;48.43;101393.20;105994;1254;60428;-57
2024/03/07 04:15:16;;;;;;;11.80;3.30;;;;;;;2.75;48.45;101395.61;104203;1261;60454;-57
2024/03/07 04:17:48;;;;;;;10.10;4.80;;;;;;;2.74;48.51;101396.66;105312;1257;63717;-57
2024/03/07 04:20:19;;;;;;;7.10;2.80;;;;;;;2.74;48.70;101398.05;104070;1256;61295;-56
2024/03/07 04:22:48;;;;;;;7.40;2.80;;;;;;;2.74;48.76;101399.11;104138;1258;63691;-56
2024/03/07 04:25:17;;;;;;;9.30;3.20;;;;;;;2.74;48.79;101399.79;104926;1254;61272;-51
2024/03/07 04:27:45;;;;;;;7.80;3.20;;;;;;;2.73;48.75;101403.44;105949;1262;61780;-57
2024/03/07 04:30:15;;;;;;;5.10;2.30;;;;;;;2.73;48.78;101402.07;104158;1254;63664;-57
2024/03/07 04:32:43;;;;;;;8.40;3.80;;;;;;;2.72;48.61;101400.73;104198;1254;62419;-57
2024/03/07 04:35:10;;;;;;;6.70;2.50;;;;;;;2.68;48.33;101398.77;104198;1257;62576;-56
2024/03/07 04:37:42;;;;;;;5.80;2.30;;;;;;;2.65;48.28;101400.24;103958;1258;236762;-58
2024/03/07 04:53:30;;;;;;;12.00;7.00;;;;;;;2.57;48.69;101403.91;102201;1287;604616;-58
2024/03/07 04:55:58;;;;;;;7.20;2.60;;;;;;;3.10;47.64;101403.52;103238;1271;301092;-56
2024/03/07 04:58:25;;;;;;;5.80;2.30;;;;;;;3.11;47.28;101408.70;104463;1257;59294;-56
2024/03/07 05:00:53;;;;;;;5.30;2.00;;;;;;;3.07;47.26;101415.40;104196;1257;62053;-56
2024/03/07 05:03:21;;;;;;;7.50;2.40;;;;;;;3.03;47.38;101416.72;108588;1257;60477;-57
2024/03/07 05:05:51;;;;;;;7.10;2.30;;;;;;;3.00;47.29;101417.17;108477;1257;63702;-56
2024/03/07 05:08:19;;;;;;;6.20;2.30;;;;;;;2.97;46.97;101418.66;106065;1261;59367;-57
2024/03/07 05:10:47;;;;;;;8.20;3.10;;;;;;;2.92;46.70;101414.84;104179;1260;61527;-58
2024/03/07 05:13:14;;;;;;;7.70;2.90;;;;;;;2.85;46.70;101416.79;104104;1257;63330;-55
2024/03/07 05:15:42;;;;;;;6.90;3.10;;;;;;;2.79;46.75;101420.26;104167;1257;61342;-55
2024/03/07 05:18:09;;;;;;;5.00;1.80;;;;;;;2.73;46.85;101424.09;104131;1261;62470;-58
2024/03/07 05:20:38;;;;;;;7.20;2.60;;;;;;;2.71;46.95;101423.64;104179;1257;59871;-57
2024/03/07 05:23:06;;;;;;;7.30;2.70;;;;;;;2.68;46.93;101425.45;104232;1258;58456;-55
2024/03/07 05:25:34;;;;;;;8.10;2.30;;;;;;;2.65;46.94;101426.42;104129;1263;62927;-59
2024/03/07 05:28:02;;;;;;;6.80;2.00;;;;;;;2.62;47.06;101425.28;108466;1257;61315;-58
2024/03/07 05:30:31;;;;;;;6.10;2.70;;;;;;;2.62;47.22;101429.46;108562;1257;63715;-58
2024/03/07 05:33:00;;;;;;;7.00;2.50;;;;;;;2.63;47.34;101430.11;108453;1263;59350;-57
2024/03/07 05:35:29;;;;;;;5.40;2.00;;;;;;;2.66;47.20;101428.98;108551;1257;57588;-57
2024/03/07 05:37:57;;;;;;;7.50;3.70;;;;;;;2.71;47.36;101430.20;108554;1257;62925;-58
2024/03/07 05:40:25;;;;;;;5.10;2.10;;;;;;;2.76;47.19;101434.23;108482;1257;61724;-60
2024/03/07 05:42:53;;;;;;;6.40;2.40;;;;;;;2.79;46.88;101434.12;108459;1257;63773;-58
2024/03/07 05:45:20;;;;;;;8.30;3.00;;;;;;;2.80;46.87;101431.66;107736;1257;59391;-59
2024/03/07 05:47:48;;;;;;;6.50;2.80;;;;;;;2.79;46.69;101436.02;104121;1260;59628;-56
2024/03/07 05:50:18;;;;;;;8.00;2.80;;;;;;;2.77;46.70;101434.54;108524;1257;62878;-56
2024/03/07 05:52:45;;;;;;;10.10;2.90;;;;;;;2.79;46.85;101439.33;108791;1255;62409;-56
2024/03/07 05:55:15;;;;;;;7.90;2.70;;;;;;;2.80;46.92;101437.38;108242;1254;64365;-56
2024/03/07 05:57:44;;;;;;;8.60;3.10;;;;;;;2.81;47.03;101437.36;104594;1254;59708;-57
2024/03/07 06:00:14;;;;;;;5.50;2.40;;;;;;;2.83;46.97;101438.52;108795;1254;58688;-55
2024/03/07 06:02:42;;;;;;;7.80;3.20;;;;;;;2.82;46.94;101437.67;105356;1254;64154;-57
2024/03/07 06:05:15;;;;;;;7.90;3.10;;;;;;;2.79;46.80;101436.38;104299;1257;61825;-58
2024/03/07 06:07:45;;;;;;;5.70;2.20;;;;;;;2.76;46.84;101439.40;104389;1254;62472;-56
2024/03/07 06:10:16;;;;;;;9.70;3.60;;;;;;;2.75;47.13;101441.34;104368;1254;61060;-57
2024/03/07 06:12:45;;;;;;;6.80;2.80;;;;;;;2.76;47.14;101440.79;108728;1254;59903;-56
2024/03/07 06:15:16;;;;;;;6.10;3.10;;;;;;;2.76;47.14;101446.01;108742;1254;62825;-57
2024/03/07 06:17:46;;;;;;;8.80;2.80;;;;;;;2.76;47.48;101446.52;108758;1258;61327;-56
2024/03/07 06:20:22;;;;;;;9.20;3.90;;;;;;;2.77;47.30;101446.15;108815;1253;62578;-56
2024/03/07 06:22:52;;;;;;;7.30;2.80;;;;;;;2.75;47.39;101448.80;108753;1254;58675;-57
2024/03/07 06:26:12;;;;;;;8.00;3.30;;;;;;;2.73;47.59;101450.42;104406;1259;59666;-56
2024/03/07 06:28:10;;;;;;;6.80;2.40;;;;;;;2.71;47.66;101451.52;104271;1259;64408;-60
2024/03/07 06:30:42;;;;;;;10.30;3.90;;;;;;;2.68;47.86;101452.98;104408;1254;64154;-55
2024/03/07 06:33:11;;;;;;;6.80;2.70;;;;;;;2.68;47.90;101453.16;104258;1254;63694;-58
2024/03/07 06:35:39;;;;;;;10.20;2.50;;;;;;;2.68;47.83;101453.33;107501;1254;60973;-58
2024/03/07 06:38:08;;;;;;;8.10;2.60;;;;;;;2.67;47.66;101451.30;104303;1254;59512;-57
2024/03/07 06:40:42;;;;;;;8.50;3.60;;;;;;;2.67;47.73;101453.91;108744;1254;62845;-60
2024/03/07 06:43:10;;;;;;;8.20;2.50;;;;;;;2.67;47.63;101450.77;107473;1254;61386;-58
2024/03/07 06:45:38;;;;;;;8.80;3.50;;;;;;;2.66;47.40;101454.45;104351;1254;62533;-58
2024/03/07 06:48:09;;;;;;;9.30;3.20;;;;;;;2.64;47.19;101457.95;108746;1254;60187;-60
2024/03/07 06:50:37;;;;;;;7.80;3.30;;;;;;;2.65;47.15;101458.83;108667;1253;57997;-60
2024/03/07 06:53:09;;;;;;;8.10;2.90;;;;;;;2.65;47.26;101459.16;108746;1254;65087;-59
2024/03/07 06:55:37;;;;;;;8.20;3.30;;;;;;;2.67;47.33;101459.27;106819;1254;60084;-59
2024/03/07 06:58:06;;;;;;;7.10;2.60;;;;;;;2.69;47.12;101459.38;108777;1254;64078;-60
2024/03/07 07:00:35;;;;;;;6.10;2.30;;;;;;;2.71;47.28;101461.90;108737;1254;58966;-61
2024/03/07 07:03:04;;;;;;;6.50;2.90;;;;;;;2.75;47.33;101464.92;108605;1258;59317;-61
2024/03/07 07:05:33;;;;;;;6.50;2.60;;;;;;;2.82;47.11;101467.16;108723;1254;74152;-58
2024/03/07 07:08:01;;;;;;;7.60;2.60;;;;;;;2.86;46.88;101464.61;108786;1254;60060;-58
2024/03/07 07:10:29;;;;;;;6.40;2.60;;;;;;;2.90;46.82;101465.49;108742;1254;64264;-58
2024/03/07 07:12:57;;;;;;;7.50;3.20;;;;;;;2.94;46.66;101470.40;107704;1254;59604;-58
2024/03/07 07:15:25;;;;;;;6.40;2.60;;;;;;;2.96;46.40;101473.45;108743;1254;58802;-57
2024/03/07 07:17:52;;;;;;;7.20;2.60;;;;;;;2.97;46.23;101472.73;105061;1257;75374;-58
2024/03/07 07:20:20;;;;;;;8.60;2.60;;;;;;;2.95;46.29;101472.28;104396;1254;62163;-58
2024/03/07 07:22:48;;;;;;;8.30;3.40;;;;;;;2.93;46.22;101475.46;104470;1254;64042;-59
2024/03/07 07:25:20;;;;;;;8.50;2.40;;;;;;;2.91;46.16;101476.56;104157;1260;59667;-60
2024/03/07 07:27:51;;;;;;;7.20;2.50;;;;;;;2.88;46.29;101479.27;104221;1254;59720;-56
2024/03/07 07:30:22;;;;;;;7.20;2.90;;;;;;;2.85;46.67;101479.37;104307;1260;64269;-57
2024/03/07 07:32:51;;;;;;;10.40;3.80;;;;;;;2.83;46.55;101481.14;104177;1254;74597;-58
2024/03/07 07:35:19;;;;;;;9.00;3.00;;;;;;;2.82;46.68;101482.39;108732;1259;75343;-59
2024/03/07 07:37:48;;;;;;;7.90;3.40;;;;;;;2.83;46.63;101481.16;108759;1258;61886;-59
2024/03/07 07:40:18;;;;;;;6.20;2.60;;;;;;;2.86;46.44;101481.58;106365;1254;59860;-58
2024/03/07 07:42:46;;;;;;;6.50;2.60;;;;;;;2.88;46.35;101483.60;104295;1254;73142;-57
2024/03/07 07:45:15;;;;;;;6.50;2.90;;;;;;;2.88;46.29;101482.54;108790;1254;60326;-56
2024/03/07 07:47:44;;;;;;;6.40;2.30;;;;;;;2.91;46.47;101487.50;105413;1254;74833;-59
2024/03/07 07:50:13;;;;;;;9.30;2.30;;;;;;;2.90;46.31;101488.73;108781;1254;59138;-57
2024/03/07 07:52:43;;;;;;;7.30;3.10;;;;;;;2.93;46.33;101484.30;108797;1254;57676;-60
2024/03/07 07:55:14;;;;;;;9.80;3.10;;;;;;;2.97;45.80;101485.55;104870;1254;64481;-61
2024/03/07 07:57:45;;;;;;;5.40;2.70;;;;;;;2.98;45.50;101486.75;104281;1254;74854;-60
2024/03/07 08:00:23;;;;;;;6.30;2.50;;;;;;;2.94;45.31;101486.00;104243;1254;66097;-59
2024/03/07 08:02:58;;;;;;;5.80;2.30;;;;;;;2.89;45.33;101491.71;104956;1254;59563;-59
2024/03/07 08:05:27;;;;;;;7.00;2.60;;;;;;;2.85;45.69;101491.81;104237;1254;61394;-57
2024/03/07 08:07:59;;;;;;;5.70;2.00;;;;;;;2.86;46.01;101492.48;104281;1254;63284;-56
2024/03/07 08:10:31;;;;;;;6.70;2.80;;;;;;;2.91;46.19;101496.31;108728;1254;62441;-57
2024/03/07 08:12:59;;;;;;;7.70;3.00;;;;;;;2.99;46.27;101495.05;105758;1256;63240;-59
2024/03/07 08:15:27;;;;;;;9.80;4.10;;;;;;;3.09;46.60;101498.37;104410;1254;60330;-58
2024/03/07 08:17:56;;;;;;;6.20;2.70;;;;;;;3.17;46.61;101496.23;104292;1254;59698;-58
2024/03/07 08:20:25;;;;;;;6.30;2.80;;;;;;;3.21;46.13;101497.14;108904;1254;64490;-59
2024/03/07 08:22:54;;;;;;;5.50;2.50;;;;;;;3.21;45.94;101498.02;108856;1254;63702;-61
2024/03/07 08:25:24;;;;;;;7.80;3.60;;;;;;;3.21;46.21;101500.77;108734;1254;63882;-61
2024/03/07 08:27:53;;;;;;;8.20;3.10;;;;;;;3.26;46.00;101497.87;108797;1254;60098;-61
2024/03/07 08:30:21;;;;;;;6.70;2.80;;;;;;;3.28;45.90;101499.00;108776;1254;63050;-62
2024/03/07 08:32:50;;;;;;;5.90;2.10;;;;;;;3.33;45.79;101497.46;105058;1259;73126;-61
2024/03/07 08:35:18;;;;;;;7.40;2.70;;;;;;;3.37;45.59;101499.42;108726;1254;62420;-60
2024/03/07 08:37:49;;;;;;;6.30;2.20;;;;;;;3.42;45.40;101500.62;104423;1254;74862;-62
2024/03/07 08:40:20;;;;;;;5.60;2.10;;;;;;;3.45;45.09;101501.23;104359;1260;61499;-61
2024/03/07 08:42:51;;;;;;;8.30;2.40;;;;;;;3.49;44.80;101502.66;104346;1259;59647;-57
2024/03/07 08:45:19;;;;;;;6.20;2.50;;;;;;;3.53;44.37;101507.58;108768;1253;75305;-57
2024/03/07 08:47:47;;;;;;;7.50;2.70;;;;;;;3.54;44.13;101509.80;105279;1254;60524;-56
2024/03/07 08:50:17;;;;;;;6.40;2.30;;;;;;;3.52;44.26;101508.48;104466;1261;64966;-60
2024/03/07 08:52:46;;;;;;;8.80;3.00;;;;;;;3.52;44.19;101505.54;104400;1260;61122;-61
2024/03/07 08:55:17;;;;;;;6.20;2.10;;;;;;;3.50;44.20;101508.17;104659;1254;60451;-58
2024/03/07 08:57:49;;;;;;;6.00;2.50;;;;;;;3.50;44.41;101507.13;107397;1258;66290;-58
2024/03/07 09:00:23;;;;;;;7.70;3.00;;;;;;;3.53;44.73;101506.52;104465;1259;60314;-59
2024/03/07 09:02:55;;;;;;;7.10;3.00;;;;;;;3.54;44.65;101508.73;104388;1255;67014;-58
2024/03/07 09:05:23;;;;;;;6.80;2.50;;;;;;;3.50;44.51;101508.18;108841;1254;60189;-60
2024/03/07 09:07:52;;;;;;;5.50;2.40;;;;;;;3.47;44.49;101508.11;108867;1257;60517;-60
2024/03/07 09:10:20;;;;;;;5.70;2.00;;;;;;;3.45;44.62;101509.39;107120;1257;65503;-59
2024/03/07 09:12:50;;;;;;;7.20;3.20;;;;;;;3.47;44.85;101507.77;104244;1260;61602;-62
2024/03/07 09:15:19;;;;;;;7.80;3.10;;;;;;;3.52;45.12;101509.49;104326;1254;63878;-61
2024/03/07 09:17:47;;;;;;;7.90;3.30;;;;;;;3.60;45.24;101511.34;108725;1254;60168;-59
2024/03/07 09:20:15;;;;;;;7.90;3.10;;;;;;;3.64;44.90;101508.27;106226;1254;60527;-58
2024/03/07 09:22:44;;;;;;;6.50;2.30;;;;;;;3.64;45.05;101507.23;104290;1260;65061;-59
2024/03/07 09:25:16;;;;;;;7.20;2.70;;;;;;;3.66;45.27;101506.64;104508;1255;60549;-56
2024/03/07 09:27:44;;;;;;;6.40;3.20;;;;;;;3.68;45.36;101510.20;104270;1254;64753;-58
2024/03/07 09:30:14;;;;;;;7.30;3.20;;;;;;;3.70;45.14;101508.58;104354;1254;60689;-58
2024/03/07 09:32:42;;;;;;;7.50;2.70;;;;;;;3.74;44.90;101505.31;108805;1254;60695;-59
2024/03/07 09:35:14;;;;;;;5.30;2.00;;;;;;;3.78;44.51;101502.75;108167;1255;65322;-60
2024/03/07 09:37:43;;;;;;;7.70;2.50;;;;;;;3.79;44.21;101504.98;108754;1252;63906;-59
2024/03/07 09:40:14;;;;;;;8.30;3.30;;;;;;;3.76;44.08;101505.77;108813;1254;62875;-58
2024/03/07 09:42:44;;;;;;;8.40;3.20;;;;;;;3.73;43.94;101505.54;108759;1254;60157;-59
2024/03/07 09:45:15;;;;;;;9.70;2.90;;;;;;;3.65;44.12;101505.11;107286;1254;60397;-58
2024/03/07 09:47:48;;;;;;;7.60;2.80;;;;;;;3.58;44.21;101513.84;104379;1263;66039;-58
2024/03/07 09:50:19;;;;;;;6.40;2.60;;;;;;;3.54;44.45;101511.16;104275;1259;64722;-59
2024/03/07 09:52:49;;;;;;;9.50;3.70;;;;;;;3.50;44.48;101510.42;105848;1257;66328;-58
2024/03/07 09:55:21;;;;;;;6.60;2.70;;;;;;;3.47;44.89;101506.55;108896;1254;59624;-58
2024/03/07 09:57:50;;;;;;;7.50;3.00;;;;;;;3.47;45.30;101507.40;108751;1254;58321;-55
2024/03/07 10:00:25;;;;;;;6.50;2.20;;;;;;;3.48;45.31;101508.08;108730;1254;76070;-58
2024/03/07 10:03:09;;;;;;;6.70;2.20;;;;;;;3.49;44.89;101507.16;108722;1254;72969;-58
2024/03/07 10:05:38;;;;;;;8.00;2.60;;;;;;;3.48;44.76;101505.11;108523;1259;63945;-59
2024/03/07 10:08:07;;;;;;;8.50;2.40;;;;;;;3.47;44.56;101506.05;108702;1258;58430;-59
2024/03/07 10:10:35;;;;;;;8.10;2.60;;;;;;;3.48;44.43;101504.95;108422;1255;58236;-59
2024/03/07 10:13:04;;;;;;;6.90;2.40;;;;;;;3.51;44.54;101505.71;104324;1260;63795;-59
2024/03/07 10:15:33;;;;;;;6.80;2.80;;;;;;;3.59;44.71;101503.19;108873;1254;60327;-59
2024/03/07 10:18:01;;;;;;;9.00;2.80;;;;;;;3.69;44.72;101500.45;108720;1254;73591;-57
2024/03/07 10:20:29;;;;;;;7.40;2.80;;;;;;;3.78;44.89;101496.00;108781;1255;58942;-58
2024/03/07 10:22:57;;;;;;;8.00;2.60;;;;;;;3.86;44.75;101499.17;104906;1255;61423;-59
2024/03/07 10:25:27;;;;;;;6.00;2.10;;;;;;;3.94;44.53;101499.96;104328;1260;63864;-58
2024/03/07 10:27:57;;;;;;;6.10;2.80;;;;;;;3.99;44.55;101494.73;104311;1257;64572;-58
2024/03/07 10:30:27;;;;;;;7.60;2.50;;;;;;;4.04;44.56;101497.88;104317;1259;64000;-59
2024/03/07 10:32:57;;;;;;;9.80;2.90;;;;;;;4.08;44.56;101493.23;108760;1255;59903;-59
2024/03/07 10:35:28;;;;;;;6.70;2.80;;;;;;;4.12;44.30;101490.31;108749;1254;58177;-59
2024/03/07 10:38:06;;;;;;;6.40;2.40;;;;;;;4.14;44.06;101493.39;108748;1259;63790;-59
2024/03/07 10:40:37;;;;;;;6.10;2.10;;;;;;;4.14;44.29;101490.09;108773;1254;72904;-59
2024/03/07 10:43:09;;;;;;;7.80;3.50;;;;;;;4.15;44.32;101487.93;108702;1259;63873;-59
2024/03/07 10:45:48;;;;;;;7.00;3.10;;;;;;;4.19;44.12;101486.58;104580;1259;60431;-60
2024/03/07 10:48:17;;;;;;;6.20;2.40;;;;;;;4.24;44.01;101486.55;107192;1260;62720;-58
2024/03/07 10:51:14;;;;;;;7.00;3.00;;;;;;;4.28;43.97;101486.27;108872;1253;76511;-58
2024/03/07 10:53:45;;;;;;;5.70;2.00;;;;;;;4.33;43.87;101489.73;108237;1258;61874;-58
2024/03/07 10:56:16;;;;;;;10.00;3.60;;;;;;;4.35;43.95;101488.63;104704;1259;64168;-57
2024/03/07 10:59:02;;;;;;;7.90;3.20;;;;;;;4.35;44.28;101486.20;108758;1254;61413;-57
2024/03/07 11:01:33;;;;;;;7.20;2.60;;;;;;;4.36;44.24;101488.21;104773;1257;60421;-59
2024/03/07 11:04:05;;;;;;;7.50;2.80;;;;;;;4.39;44.13;101489.54;108747;1254;65926;-59
2024/03/07 11:06:37;;;;;;;10.50;3.00;;;;;;;4.38;43.92;101491.99;108704;1254;60718;-60
2024/03/07 11:09:10;;;;;;;8.10;2.90;;;;;;;4.31;43.82;101491.53;108763;1260;65991;-60
2024/03/07 11:11:40;;;;;;;6.70;2.60;;;;;;;4.25;44.04;101487.75;108814;1254;59553;-59
2024/03/07 11:14:10;;;;;;;8.50;3.20;;;;;;;4.23;44.25;101485.58;108722;1258;59562;-58
2024/03/07 11:16:41;;;;;;;7.00;2.70;;;;;;;4.25;44.49;101488.64;108597;1258;65930;-58
2024/03/07 11:19:29;;;;;;;8.30;3.70;;;;;;;4.28;44.75;101488.69;105734;1258;60533;-58
2024/03/07 11:21:59;;;;;;;9.20;2.70;;;;;;;4.27;44.40;101484.05;106759;1258;77213;-59
2024/03/07 11:24:28;;;;;;;8.40;3.80;;;;;;;4.26;44.40;101484.40;105026;1259;60596;-58
2024/03/07 11:26:57;;;;;;;6.80;2.70;;;;;;;4.26;44.37;101483.52;104324;1254;60581;-60
2024/03/07 11:29:57;;;;;;;9.30;3.50;;;;;;;4.22;44.18;101481.95;108756;1255;76480;-60
2024/03/07 11:32:26;;;;;;;8.20;3.50;;;;;;;4.19;44.65;101482.06;108734;1260;72601;-60
2024/03/07 11:34:54;;;;;;;8.20;3.50;;;;;;;4.21;44.60;101482.52;108644;1260;68169;-59
2024/03/07 11:37:43;;;;;;;8.10;3.20;;;;;;;4.23;44.78;101480.70;108742;1260;58621;-59
2024/03/07 11:40:31;;;;;;;6.90;2.70;;;;;;;4.29;44.79;101479.11;108849;1255;58202;-59
2024/03/07 11:43:04;;;;;;;11.10;3.10;;;;;;;4.34;44.72;101474.23;108605;1254;66101;-59
2024/03/07 11:45:44;;;;;;;7.30;3.40;;;;;;;4.36;44.64;101471.73;104336;1254;72173;-59
2024/03/07 11:48:14;;;;;;;8.30;3.80;;;;;;;4.34;44.51;101472.69;108714;1254;65189;-63